Time;durP1;ratioP1;P1;durP2;ratioP2;P2;SDS_P1;SDS_P2;PMS_P1;PMS_P2;Temp;Humidity;BMP_temperature;BMP_pressure;BME280_temperature;BME280_humidity;BME280_pressure;Samples;Min_cycle;Max_cycle;Signal;HPM_P1;HPM_P2
2021/09/17 00:01:28;;;;;;;41.67;16.67;;;;;;;;;;4974339;28;20125;-57
2021/09/17 00:03:54;;;;;;;43.55;17.13;;;;;;;;;;4974957;28;20050;-57
2021/09/17 00:06:20;;;;;;;34.88;15.35;;;;;;;;;;4972534;28;20047;-57
2021/09/17 00:08:47;;;;;;;39.45;16.27;;;;;;;;;;4973913;28;20151;-58
2021/09/17 00:11:13;;;;;;;40.53;16.02;;;;;;;;;;4976237;28;20054;-58
2021/09/17 00:13:40;;;;;;;39.42;16.10;;;;;;;;;;4974289;28;20081;-58
2021/09/17 00:16:06;;;;;;;44.72;17.67;;;;;;;;;;4974473;28;20105;-57
2021/09/17 00:18:32;;;;;;;36.10;15.52;;;;;;;;;;4974193;28;20554;-58
2021/09/17 00:20:59;;;;;;;40.05;16.27;;;;;;;;;;4970200;28;20078;-57
2021/09/17 00:23:25;;;;;;;37.42;16.67;;;;;;;;;;4977740;28;20051;-57
2021/09/17 00:25:52;;;;;;;40.75;16.52;;;;;;;;;;4973831;28;20054;-57
2021/09/17 00:28:18;;;;;;;40.38;15.00;;;;;;;;;;4974127;28;20158;-57
2021/09/17 00:30:45;;;;;;;33.08;15.23;;;;;;;;;;4973855;28;20042;-57
2021/09/17 00:33:11;;;;;;;38.63;15.57;;;;;;;;;;4971190;28;20043;-57
2021/09/17 00:35:38;;;;;;;37.17;16.13;;;;;;;;;;4975424;28;20046;-58
2021/09/17 00:38:05;;;;;;;38.50;15.77;;;;;;;;;;4976769;28;20066;-58
2021/09/17 00:40:31;;;;;;;34.00;15.50;;;;;;;;;;4974039;28;20043;-57
2021/09/17 00:42:58;;;;;;;33.15;14.73;;;;;;;;;;4974007;28;20043;-58
2021/09/17 00:45:24;;;;;;;35.00;14.98;;;;;;;;;;4972577;28;20130;-56
2021/09/17 00:47:51;;;;;;;35.05;14.45;;;;;;;;;;4972585;28;20043;-57
2021/09/17 00:50:18;;;;;;;27.63;14.23;;;;;;;;;;4976073;28;20050;-58
2021/09/17 00:52:46;;;;;;;27.52;13.77;;;;;;;;;;4974258;28;20082;-58
2021/09/17 00:55:13;;;;;;;33.33;13.40;;;;;;;;;;4974055;28;20409;-58
2021/09/17 00:57:39;;;;;;;34.22;13.52;;;;;;;;;;4973610;28;20133;-57
2021/09/17 01:00:08;;;;;;;31.38;14.18;;;;;;;;;;4970623;28;20154;-58
2021/09/17 01:02:34;;;;;;;32.55;13.85;;;;;;;;;;4976670;28;20137;-57
2021/09/17 01:05:01;;;;;;;32.28;14.77;;;;;;;;;;4975086;28;20382;-57
2021/09/17 01:07:27;;;;;;;40.10;14.38;;;;;;;;;;4974293;28;20066;-57
2021/09/17 01:09:55;;;;;;;31.83;14.40;;;;;;;;;;4974360;28;20054;-57
2021/09/17 01:12:21;;;;;;;30.75;15.40;;;;;;;;;;4972463;28;20125;-57
2021/09/17 01:14:48;;;;;;;40.72;15.10;;;;;;;;;;4972920;28;20074;-57
2021/09/17 01:17:14;;;;;;;26.95;13.55;;;;;;;;;;4975904;28;20129;-57
2021/09/17 01:19:40;;;;;;;30.08;13.45;;;;;;;;;;4974053;28;20066;-58
2021/09/17 01:22:08;;;;;;;33.50;14.20;;;;;;;;;;4974075;28;20055;-57
2021/09/17 01:24:34;;;;;;;31.55;14.48;;;;;;;;;;4974170;28;20074;-57
2021/09/17 01:27:01;;;;;;;31.48;14.40;;;;;;;;;;4954484;28;20166;-58
2021/09/17 01:29:28;;;;;;;32.53;14.77;;;;;;;;;;4977632;28;20074;-57
2021/09/17 01:31:54;;;;;;;30.75;13.90;;;;;;;;;;4974072;28;20085;-57
2021/09/17 01:34:22;;;;;;;26.83;15.25;;;;;;;;;;4974227;28;20066;-57
2021/09/17 01:36:49;;;;;;;28.60;13.15;;;;;;;;;;4973971;28;20544;-57
2021/09/17 01:39:17;;;;;;;29.58;14.25;;;;;;;;;;4974915;28;20047;-57
2021/09/17 01:41:43;;;;;;;23.55;13.18;;;;;;;;;;4977686;28;20051;-58
2021/09/17 01:44:10;;;;;;;29.08;12.80;;;;;;;;;;4978839;28;20082;-57
2021/09/17 01:46:36;;;;;;;32.35;14.15;;;;;;;;;;4977456;28;20046;-57
2021/09/17 01:49:04;;;;;;;25.83;11.95;;;;;;;;;;4977472;28;20061;-57
2021/09/17 01:51:30;;;;;;;31.33;12.32;;;;;;;;;;4976854;28;20084;-57
2021/09/17 01:53:56;;;;;;;22.95;12.23;;;;;;;;;;4974464;28;20054;-57
2021/09/17 01:56:23;;;;;;;23.75;12.05;;;;;;;;;;4980160;28;20051;-57
2021/09/17 01:58:53;;;;;;;22.40;12.38;;;;;;;;;;4977098;28;20504;-57
2021/09/17 02:01:20;;;;;;;23.27;12.27;;;;;;;;;;4977187;28;20051;-58
2021/09/17 02:03:48;;;;;;;26.83;12.75;;;;;;;;;;4977103;28;20111;-58
2021/09/17 02:06:18;;;;;;;21.70;11.57;;;;;;;;;;4974663;28;20083;-57
2021/09/17 02:08:45;;;;;;;25.40;12.63;;;;;;;;;;4977247;28;20118;-57
2021/09/17 02:11:11;;;;;;;18.50;11.13;;;;;;;;;;4978332;28;20043;-57
2021/09/17 02:13:38;;;;;;;17.88;11.18;;;;;;;;;;4978543;28;20070;-58
2021/09/17 02:16:04;;;;;;;28.88;11.43;;;;;;;;;;4977082;28;20058;-57
2021/09/17 02:18:30;;;;;;;17.95;10.50;;;;;;;;;;4976505;28;20555;-57
2021/09/17 02:20:57;;;;;;;18.98;10.57;;;;;;;;;;4973820;28;20075;-57
2021/09/17 02:23:23;;;;;;;21.63;10.00;;;;;;;;;;4979725;28;20126;-57
2021/09/17 02:25:49;;;;;;;17.23;9.75;;;;;;;;;;4976669;28;20478;-57
2021/09/17 02:28:16;;;;;;;18.70;10.23;;;;;;;;;;4976759;28;20074;-57
2021/09/17 02:30:42;;;;;;;17.15;10.70;;;;;;;;;;4976794;28;20053;-57
2021/09/17 02:33:10;;;;;;;20.33;10.20;;;;;;;;;;4973094;28;20481;-57
2021/09/17 02:35:37;;;;;;;18.20;9.48;;;;;;;;;;4978252;28;20149;-57
2021/09/17 02:38:03;;;;;;;24.20;11.63;;;;;;;;;;4977577;28;20053;-58
2021/09/17 02:40:30;;;;;;;20.02;11.13;;;;;;;;;;4976436;28;20062;-57
2021/09/17 02:42:58;;;;;;;18.88;10.25;;;;;;;;;;4976482;28;20614;-57
2021/09/17 02:45:24;;;;;;;17.52;10.38;;;;;;;;;;4974834;28;20052;-57
2021/09/17 02:47:51;;;;;;;21.00;10.18;;;;;;;;;;4975221;28;20496;-57
2021/09/17 02:50:17;;;;;;;21.50;10.77;;;;;;;;;;4977472;28;20086;-58
2021/09/17 02:52:44;;;;;;;25.60;10.77;;;;;;;;;;4976246;28;20051;-57
2021/09/17 02:55:11;;;;;;;18.35;10.23;;;;;;;;;;4976068;28;20043;-57
2021/09/17 02:57:40;;;;;;;19.88;10.90;;;;;;;;;;4977366;28;20524;-57
2021/09/17 03:00:09;;;;;;;20.02;9.55;;;;;;;;;;4972500;28;20097;-57
2021/09/17 03:02:35;;;;;;;19.27;10.25;;;;;;;;;;4978492;28;20050;-57
2021/09/17 03:05:01;;;;;;;17.25;10.45;;;;;;;;;;4976290;28;20501;-57
2021/09/17 03:07:28;;;;;;;18.42;10.55;;;;;;;;;;4977408;28;20516;-57
2021/09/17 03:09:54;;;;;;;21.63;10.45;;;;;;;;;;4975782;28;20440;-57
2021/09/17 03:12:21;;;;;;;16.13;9.82;;;;;;;;;;4973827;28;20067;-57
2021/09/17 03:14:47;;;;;;;17.70;10.55;;;;;;;;;;4975313;28;20055;-57
2021/09/17 03:17:14;;;;;;;17.00;9.95;;;;;;;;;;4977315;28;20051;-57
2021/09/17 03:19:40;;;;;;;16.48;9.75;;;;;;;;;;4975241;28;20086;-58
2021/09/17 03:22:06;;;;;;;16.58;10.48;;;;;;;;;;4975264;28;20547;-57
2021/09/17 03:24:33;;;;;;;19.83;9.75;;;;;;;;;;4974653;28;20062;-57
2021/09/17 03:26:59;;;;;;;18.85;9.80;;;;;;;;;;4971655;28;20118;-57
2021/09/17 03:29:26;;;;;;;16.20;9.32;;;;;;;;;;4978256;28;20047;-57
2021/09/17 03:31:52;;;;;;;15.77;10.05;;;;;;;;;;4975302;28;20054;-56
2021/09/17 03:34:19;;;;;;;16.83;9.57;;;;;;;;;;4975036;28;20070;-57
2021/09/17 03:36:45;;;;;;;14.43;8.90;;;;;;;;;;4975222;28;20094;-57
2021/09/17 03:39:13;;;;;;;17.17;8.95;;;;;;;;;;4972108;28;20047;-57
2021/09/17 03:41:41;;;;;;;12.10;8.70;;;;;;;;;;4976216;28;20069;-57
2021/09/17 03:44:07;;;;;;;18.10;10.05;;;;;;;;;;4976519;28;20038;-57
2021/09/17 03:46:33;;;;;;;18.75;8.23;;;;;;;;;;4974901;28;20501;-57
2021/09/17 03:49:00;;;;;;;11.77;8.07;;;;;;;;;;4974093;28;20066;-57
2021/09/17 03:51:26;;;;;;;13.98;8.52;;;;;;;;;;4978682;28;20104;-56
2021/09/17 03:53:53;;;;;;;11.88;8.48;;;;;;;;;;4973399;28;20918;-57
2021/09/17 03:56:19;;;;;;;13.88;8.15;;;;;;;;;;4976874;28;20070;-57
2021/09/17 03:58:45;;;;;;;14.85;8.00;;;;;;;;;;4974356;28;20042;-57
2021/09/17 04:01:12;;;;;;;12.88;7.95;;;;;;;;;;4973965;28;20424;-58
2021/09/17 04:03:38;;;;;;;12.35;7.85;;;;;;;;;;4973069;28;20088;-57
2021/09/17 04:06:05;;;;;;;15.40;8.85;;;;;;;;;;4969061;28;20043;-57
2021/09/17 04:08:31;;;;;;;11.13;7.57;;;;;;;;;;4993114;28;20046;-57
2021/09/17 04:10:57;;;;;;;19.83;8.00;;;;;;;;;;4974730;28;20109;-57
2021/09/17 04:13:24;;;;;;;13.15;8.45;;;;;;;;;;4976505;28;20437;-56
2021/09/17 04:15:50;;;;;;;17.50;9.20;;;;;;;;;;4974822;28;20078;-57
2021/09/17 04:18:17;;;;;;;14.85;8.45;;;;;;;;;;4972445;28;20098;-57
2021/09/17 04:20:44;;;;;;;16.00;8.02;;;;;;;;;;4974921;28;20051;-57
2021/09/17 04:23:10;;;;;;;15.05;8.55;;;;;;;;;;4975204;28;20094;-57
2021/09/17 04:25:36;;;;;;;11.25;8.20;;;;;;;;;;4976660;28;20468;-57
2021/09/17 04:28:03;;;;;;;16.13;9.05;;;;;;;;;;4974567;28;20478;-56
2021/09/17 04:30:29;;;;;;;15.95;8.27;;;;;;;;;;4971773;28;20071;-57
2021/09/17 04:32:56;;;;;;;13.73;8.60;;;;;;;;;;4973944;28;20059;-57
2021/09/17 04:35:23;;;;;;;12.25;8.07;;;;;;;;;;4988644;28;20038;-57
2021/09/17 04:37:56;;;;;;;15.27;8.20;;;;;;;;;;4975674;28;20047;-59
2021/09/17 04:40:23;;;;;;;18.73;8.88;;;;;;;;;;4974507;28;20125;-57
2021/09/17 04:42:49;;;;;;;15.23;8.48;;;;;;;;;;4974475;28;20493;-57
2021/09/17 04:45:15;;;;;;;13.57;7.70;;;;;;;;;;4971697;28;20047;-57
2021/09/17 04:47:42;;;;;;;17.77;8.05;;;;;;;;;;4975104;28;20109;-57
2021/09/17 04:50:09;;;;;;;18.98;7.03;;;;;;;;;;4975542;28;20059;-56
2021/09/17 04:52:36;;;;;;;11.00;6.07;;;;;;;;;;4974542;28;20121;-57
2021/09/17 04:55:03;;;;;;;12.57;7.90;;;;;;;;;;4974535;28;20121;-57
2021/09/17 04:57:30;;;;;;;12.70;7.88;;;;;;;;;;4974000;28;20096;-57
2021/09/17 04:59:56;;;;;;;16.83;8.02;;;;;;;;;;4971785;28;20110;-57
2021/09/17 05:02:23;;;;;;;12.77;6.95;;;;;;;;;;4976874;28;20542;-57
2021/09/17 05:04:49;;;;;;;16.80;8.00;;;;;;;;;;4974010;28;20109;-57
2021/09/17 05:07:16;;;;;;;12.38;7.65;;;;;;;;;;4975834;28;20555;-57
2021/09/17 05:09:42;;;;;;;18.25;7.88;;;;;;;;;;4974013;28;20078;-57
2021/09/17 05:12:09;;;;;;;11.93;7.72;;;;;;;;;;4970894;28;20058;-57
2021/09/17 05:14:35;;;;;;;17.00;8.25;;;;;;;;;;4980528;28;20043;-57
2021/09/17 05:17:02;;;;;;;17.80;8.15;;;;;;;;;;4978854;28;20093;-57
2021/09/17 05:19:28;;;;;;;14.75;8.13;;;;;;;;;;4977822;28;20404;-57
2021/09/17 05:21:55;;;;;;;11.77;7.45;;;;;;;;;;4978073;28;20053;-57
2021/09/17 05:24:23;;;;;;;16.92;7.65;;;;;;;;;;4976291;28;20134;-56
2021/09/17 05:26:50;;;;;;;14.95;7.35;;;;;;;;;;4974661;28;20054;-57
2021/09/17 05:29:16;;;;;;;15.32;7.00;;;;;;;;;;4975871;28;20050;-57
2021/09/17 05:31:43;;;;;;;10.65;7.60;;;;;;;;;;4977708;28;20521;-56
2021/09/17 05:34:09;;;;;;;11.27;7.55;;;;;;;;;;4977283;28;20074;-57
2021/09/17 05:36:36;;;;;;;13.57;7.30;;;;;;;;;;4973496;28;20137;-57
2021/09/17 05:39:03;;;;;;;16.00;7.53;;;;;;;;;;4961958;28;20094;-57
2021/09/17 05:41:30;;;;;;;8.70;6.38;;;;;;;;;;4988017;28;20049;-57
2021/09/17 05:43:56;;;;;;;12.60;7.30;;;;;;;;;;4984694;28;20443;-57
2021/09/17 05:46:23;;;;;;;14.30;7.70;;;;;;;;;;4982045;28;20146;-57
2021/09/17 05:48:49;;;;;;;9.50;6.25;;;;;;;;;;4969425;28;20042;-55
2021/09/17 05:51:15;;;;;;;15.30;6.90;;;;;;;;;;4974724;28;20552;-57
2021/09/17 05:53:42;;;;;;;9.60;7.22;;;;;;;;;;4977900;28;20077;-56
2021/09/17 05:56:09;;;;;;;14.93;7.82;;;;;;;;;;4973933;28;20137;-57
2021/09/17 05:58:37;;;;;;;11.35;6.82;;;;;;;;;;4978425;28;20054;-57
2021/09/17 06:01:04;;;;;;;12.93;7.55;;;;;;;;;;4976210;28;20471;-56
2021/09/17 06:03:30;;;;;;;13.90;7.25;;;;;;;;;;4974598;28;20051;-57
2021/09/17 06:05:57;;;;;;;10.05;6.57;;;;;;;;;;4971454;28;20142;-57
2021/09/17 06:08:23;;;;;;;16.52;8.32;;;;;;;;;;4977826;28;20121;-56
2021/09/17 06:10:49;;;;;;;11.48;7.22;;;;;;;;;;4970110;28;20049;-56
2021/09/17 06:13:16;;;;;;;12.18;7.65;;;;;;;;;;4967934;28;20043;-57
2021/09/17 06:15:42;;;;;;;14.25;8.40;;;;;;;;;;4960653;28;20050;-57
2021/09/17 06:18:09;;;;;;;12.00;6.68;;;;;;;;;;4967572;28;20285;-57
2021/09/17 06:20:35;;;;;;;12.32;7.95;;;;;;;;;;4971033;28;20047;-56
2021/09/17 06:23:01;;;;;;;13.05;7.78;;;;;;;;;;4963387;28;20066;-57
2021/09/17 06:25:28;;;;;;;10.07;7.15;;;;;;;;;;4963188;28;20047;-57
2021/09/17 06:27:54;;;;;;;11.23;7.13;;;;;;;;;;4960228;28;20050;-57
2021/09/17 06:30:21;;;;;;;13.25;7.57;;;;;;;;;;4958073;28;20471;-57
2021/09/17 06:32:48;;;;;;;11.50;7.55;;;;;;;;;;4958254;28;20062;-57
2021/09/17 06:35:14;;;;;;;14.05;6.68;;;;;;;;;;4961995;28;20505;-63
2021/09/17 06:37:45;;;;;;;13.95;7.15;;;;;;;;;;4967642;28;20089;-62
2021/09/17 06:40:11;;;;;;;14.18;7.47;;;;;;;;;;4969433;28;20043;-62
2021/09/17 06:42:38;;;;;;;12.45;7.88;;;;;;;;;;4971305;28;20062;-62
2021/09/17 06:45:05;;;;;;;16.02;7.63;;;;;;;;;;4970934;28;20137;-62
2021/09/17 06:47:31;;;;;;;12.15;7.68;;;;;;;;;;4962979;28;20062;-62
2021/09/17 06:49:59;;;;;;;12.20;7.40;;;;;;;;;;4975819;28;20043;-63
2021/09/17 06:52:26;;;;;;;13.70;8.55;;;;;;;;;;4974415;28;20485;-62
2021/09/17 06:54:52;;;;;;;12.80;7.60;;;;;;;;;;4974441;28;20082;-62
2021/09/17 06:57:19;;;;;;;14.90;8.30;;;;;;;;;;4976314;28;20593;-62
2021/09/17 06:59:45;;;;;;;10.25;6.57;;;;;;;;;;4975656;28;20050;-62
2021/09/17 07:02:11;;;;;;;15.25;7.28;;;;;;;;;;4977316;28;20129;-62
2021/09/17 07:04:40;;;;;;;12.10;6.97;;;;;;;;;;4974572;28;20558;-62
2021/09/17 07:07:07;;;;;;;13.32;7.00;;;;;;;;;;4974584;28;20066;-62
2021/09/17 07:09:33;;;;;;;13.05;6.75;;;;;;;;;;4974525;28;20049;-62
2021/09/17 07:11:59;;;;;;;20.02;7.05;;;;;;;;;;4971924;28;20047;-62
2021/09/17 07:14:26;;;;;;;12.75;7.03;;;;;;;;;;4978220;28;20557;-61
2021/09/17 07:16:52;;;;;;;13.60;7.13;;;;;;;;;;4974387;28;20125;-62
2021/09/17 07:19:18;;;;;;;11.40;7.43;;;;;;;;;;4973825;28;20386;-62
2021/09/17 07:21:45;;;;;;;12.55;6.45;;;;;;;;;;4967384;28;20142;-62
2021/09/17 07:24:11;;;;;;;14.02;6.60;;;;;;;;;;4958055;28;20409;-60
2021/09/17 07:26:38;;;;;;;9.50;6.65;;;;;;;;;;4976244;28;20055;-60
2021/09/17 07:29:04;;;;;;;10.98;6.75;;;;;;;;;;4969495;28;20090;-61
2021/09/17 07:31:31;;;;;;;13.63;7.13;;;;;;;;;;4970316;28;20071;-62
2021/09/17 07:33:57;;;;;;;9.85;7.35;;;;;;;;;;4976277;28;20058;-60
2021/09/17 07:36:24;;;;;;;11.88;7.80;;;;;;;;;;4973830;28;20074;-60
2021/09/17 07:38:50;;;;;;;11.23;7.60;;;;;;;;;;4973633;28;20058;-61
2021/09/17 07:41:16;;;;;;;12.25;7.57;;;;;;;;;;4976200;28;20047;-61
2021/09/17 07:43:43;;;;;;;11.57;7.55;;;;;;;;;;4973645;28;20576;-61
2021/09/17 07:46:09;;;;;;;10.80;7.70;;;;;;;;;;4973879;28;20043;-61
2021/09/17 07:48:35;;;;;;;23.08;8.20;;;;;;;;;;4973788;28;20412;-61
2021/09/17 07:51:02;;;;;;;12.77;7.78;;;;;;;;;;4964962;28;20070;-61
2021/09/17 07:53:28;;;;;;;19.92;7.25;;;;;;;;;;4977613;28;20142;-61
2021/09/17 07:55:55;;;;;;;14.98;8.13;;;;;;;;;;4975276;28;20050;-60
2021/09/17 07:58:21;;;;;;;13.57;8.27;;;;;;;;;;4973675;28;20074;-61
2021/09/17 08:00:48;;;;;;;12.07;8.38;;;;;;;;;;4973698;28;20054;-61
2021/09/17 08:03:14;;;;;;;10.63;7.32;;;;;;;;;;4970639;28;20098;-61
2021/09/17 08:05:40;;;;;;;17.23;7.18;;;;;;;;;;4974364;28;20186;-66
2021/09/17 08:08:07;;;;;;;16.52;9.38;;;;;;;;;;4976351;28;20047;-66
2021/09/17 08:10:33;;;;;;;11.27;7.43;;;;;;;;;;4973491;28;20382;-64
2021/09/17 08:13:00;;;;;;;18.02;7.90;;;;;;;;;;4969167;28;20074;-64
2021/09/17 08:15:26;;;;;;;11.75;8.02;;;;;;;;;;4959920;28;20133;-65
2021/09/17 08:17:52;;;;;;;12.45;8.48;;;;;;;;;;4954682;28;20043;-65
2021/09/17 08:20:19;;;;;;;11.70;7.07;;;;;;;;;;4960160;28;20047;-66
2021/09/17 08:22:45;;;;;;;13.57;7.45;;;;;;;;;;4973356;28;20150;-65
2021/09/17 08:25:12;;;;;;;12.50;6.90;;;;;;;;;;4971433;28;20515;-65
2021/09/17 08:27:39;;;;;;;12.18;8.15;;;;;;;;;;4971717;28;20513;-65
2021/09/17 08:30:06;;;;;;;12.20;7.93;;;;;;;;;;4961465;28;20047;-66
2021/09/17 08:32:33;;;;;;;16.00;8.32;;;;;;;;;;4969283;28;20054;-66
2021/09/17 08:35:00;;;;;;;15.25;8.48;;;;;;;;;;4961234;28;20077;-65
2021/09/17 08:37:27;;;;;;;14.00;9.10;;;;;;;;;;4966336;28;20654;-64
2021/09/17 08:39:53;;;;;;;12.30;7.68;;;;;;;;;;4971833;28;20086;-66
2021/09/17 08:42:22;;;;;;;12.52;8.07;;;;;;;;;;4971000;28;20067;-65
2021/09/17 08:44:49;;;;;;;12.63;8.77;;;;;;;;;;4956566;28;20054;-65
2021/09/17 08:47:18;;;;;;;15.48;9.23;;;;;;;;;;4976489;28;20504;-66
2021/09/17 08:49:45;;;;;;;16.35;8.82;;;;;;;;;;4979386;28;20074;-65
2021/09/17 08:52:13;;;;;;;14.18;8.75;;;;;;;;;;4979492;28;20081;-65
2021/09/17 08:54:41;;;;;;;17.02;10.57;;;;;;;;;;4981220;28;20069;-65
2021/09/17 08:57:08;;;;;;;14.73;9.63;;;;;;;;;;4975592;28;20078;-64
2021/09/17 08:59:35;;;;;;;27.48;9.45;;;;;;;;;;4982523;28;20054;-65
2021/09/17 09:02:21;;;;;;;12.27;9.20;;;;;;;;;;4977007;28;20090;-65
2021/09/17 09:04:57;;;;;;;12.68;9.10;;;;;;;;;;4976466;28;20081;-64
2021/09/17 09:07:28;;;;;;;13.43;8.77;;;;;;;;;;4977438;28;20047;-66
2021/09/17 09:09:54;;;;;;;17.75;10.48;;;;;;;;;;4979065;28;20137;-65
2021/09/17 09:12:23;;;;;;;14.98;9.95;;;;;;;;;;4976182;28;20460;-65
2021/09/17 09:14:51;;;;;;;15.25;10.55;;;;;;;;;;4977797;28;20059;-64
2021/09/17 09:17:17;;;;;;;14.32;10.40;;;;;;;;;;4980253;28;20067;-66
2021/09/17 09:19:44;;;;;;;11.90;9.15;;;;;;;;;;4976927;28;20113;-66
2021/09/17 09:22:12;;;;;;;14.70;9.75;;;;;;;;;;4972239;28;20070;-66
2021/09/17 09:24:41;;;;;;;15.13;9.82;;;;;;;;;;4980384;28;20127;-65
2021/09/17 09:27:07;;;;;;;14.00;9.98;;;;;;;;;;4975127;28;20047;-66
2021/09/17 09:29:33;;;;;;;13.40;9.60;;;;;;;;;;4982848;28;20432;-65
2021/09/17 09:32:00;;;;;;;17.65;10.38;;;;;;;;;;4979298;28;20054;-66
2021/09/17 09:34:45;;;;;;;16.05;10.35;;;;;;;;;;4979860;28;20054;-67
2021/09/17 09:37:12;;;;;;;15.32;9.27;;;;;;;;;;4967462;28;20133;-65
2021/09/17 09:39:48;;;;;;;12.88;9.88;;;;;;;;;;4968222;28;20111;-66
2021/09/17 09:42:17;;;;;;;13.18;8.70;;;;;;;;;;4965398;28;20640;-65
2021/09/17 09:45:03;;;;;;;12.88;8.50;;;;;;;;;;4979846;28;20106;-64
2021/09/17 09:47:34;;;;;;;10.80;9.02;;;;;;;;;;4983040;28;20097;-65
2021/09/17 09:50:04;;;;;;;12.52;9.07;;;;;;;;;;4974062;28;20042;-65
2021/09/17 09:52:31;;;;;;;13.82;8.45;;;;;;;;;;4975560;28;20046;-65
2021/09/17 09:54:58;;;;;;;10.48;8.02;;;;;;;;;;4970300;28;20093;-65
2021/09/17 09:57:24;;;;;;;12.20;7.95;;;;;;;;;;4977894;28;20101;-65
2021/09/17 09:59:53;;;;;;;10.82;7.65;;;;;;;;;;4976065;28;20101;-65
2021/09/17 10:02:23;;;;;;;10.32;7.63;;;;;;;;;;4967963;28;20094;-65
2021/09/17 10:04:50;;;;;;;10.65;7.53;;;;;;;;;;4958003;28;20043;-65
2021/09/17 10:07:18;;;;;;;10.30;7.18;;;;;;;;;;4973113;28;20492;-65
2021/09/17 10:09:45;;;;;;;10.25;6.55;;;;;;;;;;4975373;28;20054;-65
2021/09/17 10:12:12;;;;;;;11.23;7.50;;;;;;;;;;4970658;28;20047;-65
2021/09/17 10:14:41;;;;;;;12.27;6.82;;;;;;;;;;4977619;28;20043;-64
2021/09/17 10:17:22;;;;;;;8.95;6.60;;;;;;;;;;4971991;28;20462;-65
2021/09/17 10:19:49;;;;;;;8.70;6.55;;;;;;;;;;4975269;28;20054;-65
2021/09/17 10:22:43;;;;;;;9.80;6.93;;;;;;;;;;4975342;28;20074;-64
2021/09/17 10:25:12;;;;;;;8.32;6.47;;;;;;;;;;4967217;28;20050;-64
2021/09/17 10:27:40;;;;;;;8.07;5.78;;;;;;;;;;4968348;28;20050;-64
2021/09/17 10:30:11;;;;;;;8.55;6.03;;;;;;;;;;4971045;28;20047;-64
2021/09/17 10:32:39;;;;;;;9.13;6.13;;;;;;;;;;4980309;28;20051;-65
2021/09/17 10:35:10;;;;;;;5.72;5.10;;;;;;;;;;4976498;28;20086;-65
2021/09/17 10:37:55;;;;;;;6.35;5.22;;;;;;;;;;4975036;28;20082;-66
2021/09/17 10:40:34;;;;;;;8.82;6.00;;;;;;;;;;4977530;28;20097;-64
2021/09/17 10:43:09;;;;;;;7.68;6.03;;;;;;;;;;4975084;28;20054;-65
2021/09/17 10:45:39;;;;;;;8.88;6.55;;;;;;;;;;4974343;28;20159;-65
2021/09/17 10:48:07;;;;;;;8.77;6.22;;;;;;;;;;4966095;28;20043;-64
2021/09/17 10:50:41;;;;;;;12.18;6.70;;;;;;;;;;4977238;28;20047;-64
2021/09/17 10:53:08;;;;;;;8.27;6.10;;;;;;;;;;4967162;28;20544;-63
2021/09/17 10:55:55;;;;;;;8.23;6.20;;;;;;;;;;4970824;28;20078;-66
2021/09/17 10:58:24;;;;;;;8.75;6.45;;;;;;;;;;4974788;28;20047;-64
2021/09/17 11:00:54;;;;;;;10.80;6.22;;;;;;;;;;4970871;28;20046;-64
2021/09/17 11:03:39;;;;;;;9.35;6.20;;;;;;;;;;4970818;28;20078;-64
2021/09/17 11:06:26;;;;;;;6.40;5.65;;;;;;;;;;4971846;28;20440;-64
2021/09/17 11:08:53;;;;;;;6.55;5.20;;;;;;;;;;4960911;28;20057;-64
2021/09/17 11:11:21;;;;;;;9.60;5.43;;;;;;;;;;4980806;28;20507;-64
2021/09/17 11:13:47;;;;;;;7.30;6.05;;;;;;;;;;4974754;28;20043;-65
2021/09/17 11:16:15;;;;;;;6.70;6.00;;;;;;;;;;4974067;28;20528;-65
2021/09/17 11:19:00;;;;;;;6.97;5.50;;;;;;;;;;4974521;28;20133;-66
2021/09/17 11:21:26;;;;;;;7.60;5.88;;;;;;;;;;4972560;28;20063;-65
2021/09/17 11:23:53;;;;;;;6.15;4.68;;;;;;;;;;4971575;28;20134;-66
2021/09/17 11:26:20;;;;;;;6.82;5.00;;;;;;;;;;4967888;28;20042;-65
2021/09/17 11:29:00;;;;;;;9.70;3.88;;;;;;;;;;4977302;28;20576;-61
2021/09/17 11:31:31;;;;;;;5.30;4.28;;;;;;;;;;4958424;28;20070;-61
2021/09/17 11:34:02;;;;;;;5.70;4.63;;;;;;;;;;4960899;28;20552;-61
2021/09/17 11:36:35;;;;;;;5.10;4.10;;;;;;;;;;4972822;28;20054;-62
2021/09/17 11:39:14;;;;;;;6.82;4.50;;;;;;;;;;4970587;28;20047;-62
2021/09/17 11:41:41;;;;;;;8.15;4.90;;;;;;;;;;4969566;28;20157;-61
2021/09/17 11:44:08;;;;;;;5.97;4.57;;;;;;;;;;4961486;28;20043;-61
2021/09/17 11:46:35;;;;;;;6.50;4.40;;;;;;;;;;4961172;28;20059;-63
2021/09/17 11:49:03;;;;;;;7.97;4.30;;;;;;;;;;4964873;28;20126;-61
2021/09/17 11:51:29;;;;;;;5.85;4.05;;;;;;;;;;4972229;28;20046;-61
2021/09/17 11:53:56;;;;;;;5.90;4.40;;;;;;;;;;4972155;28;20053;-60
2021/09/17 11:56:23;;;;;;;6.47;4.15;;;;;;;;;;4976466;28;20177;-61
2021/09/17 11:58:49;;;;;;;6.65;4.13;;;;;;;;;;4973661;28;20515;-61
2021/09/17 12:01:16;;;;;;;6.47;4.80;;;;;;;;;;4973608;28;20059;-62
2021/09/17 12:03:43;;;;;;;11.43;4.95;;;;;;;;;;4973147;28;20088;-61
2021/09/17 12:06:11;;;;;;;5.50;4.15;;;;;;;;;;4984476;28;20050;-61
2021/09/17 12:08:38;;;;;;;6.40;4.70;;;;;;;;;;4975656;28;20457;-62
2021/09/17 12:11:04;;;;;;;6.05;4.07;;;;;;;;;;4974966;28;20525;-62
2021/09/17 12:13:31;;;;;;;7.70;5.15;;;;;;;;;;4973293;28;20062;-62
2021/09/17 12:15:57;;;;;;;6.15;4.60;;;;;;;;;;4959085;28;20040;-62
2021/09/17 12:18:29;;;;;;;14.20;6.38;;;;;;;;;;4957210;28;20581;-62
2021/09/17 12:20:56;;;;;;;8.00;4.45;;;;;;;;;;4959229;28;20061;-62
2021/09/17 12:23:33;;;;;;;5.50;4.55;;;;;;;;;;4960343;28;20532;-62
2021/09/17 12:26:13;;;;;;;16.45;4.68;;;;;;;;;;4961261;28;20127;-63
2021/09/17 12:28:40;;;;;;;4.53;4.00;;;;;;;;;;4967971;28;20105;-62
2021/09/17 12:31:10;;;;;;;9.13;4.00;;;;;;;;;;4958684;28;20043;-62
2021/09/17 12:33:37;;;;;;;7.40;4.32;;;;;;;;;;4972370;28;20412;-63
2021/09/17 12:36:08;;;;;;;6.45;4.28;;;;;;;;;;4957496;28;20045;-62
2021/09/17 12:38:37;;;;;;;8.32;4.35;;;;;;;;;;4984807;28;20595;-62
2021/09/17 12:41:05;;;;;;;7.72;4.45;;;;;;;;;;4976004;28;20051;-63
2021/09/17 12:43:32;;;;;;;5.78;3.95;;;;;;;;;;4973733;28;20054;-62
2021/09/17 12:46:05;;;;;;;4.93;4.28;;;;;;;;;;4974788;28;20103;-62
2021/09/17 12:48:33;;;;;;;8.07;4.00;;;;;;;;;;4972413;28;20057;-61
2021/09/17 12:50:59;;;;;;;5.78;4.20;;;;;;;;;;4970423;28;20133;-61
2021/09/17 12:53:31;;;;;;;6.05;4.20;;;;;;;;;;4976759;28;20059;-62
2021/09/17 12:56:02;;;;;;;12.70;5.55;;;;;;;;;;4973154;28;20043;-61
2021/09/17 12:58:32;;;;;;;5.38;3.70;;;;;;;;;;4975018;28;20122;-61
2021/09/17 13:00:59;;;;;;;4.50;3.55;;;;;;;;;;4972110;28;20066;-61
2021/09/17 13:03:26;;;;;;;5.70;3.92;;;;;;;;;;4970335;28;20057;-62
2021/09/17 13:05:53;;;;;;;5.13;4.15;;;;;;;;;;4972562;28;20573;-61
2021/09/17 13:08:20;;;;;;;5.25;4.40;;;;;;;;;;4975473;28;20050;-62
2021/09/17 13:10:47;;;;;;;7.90;4.40;;;;;;;;;;4973102;28;20050;-62
2021/09/17 13:13:14;;;;;;;7.80;3.80;;;;;;;;;;4972712;28;20046;-61
2021/09/17 13:15:41;;;;;;;6.28;4.05;;;;;;;;;;4973441;28;20050;-62
2021/09/17 13:18:07;;;;;;;8.77;4.47;;;;;;;;;;4969188;28;20101;-62
2021/09/17 13:20:38;;;;;;;6.13;4.40;;;;;;;;;;4977032;28;20086;-62
2021/09/17 13:23:05;;;;;;;8.50;4.70;;;;;;;;;;4975477;28;20146;-63
2021/09/17 13:25:36;;;;;;;6.70;4.53;;;;;;;;;;4973209;28;20049;-62
2021/09/17 13:28:04;;;;;;;6.05;4.93;;;;;;;;;;4973327;28;20116;-62
2021/09/17 13:30:31;;;;;;;8.70;5.15;;;;;;;;;;4972481;28;20049;-61
2021/09/17 13:32:58;;;;;;;8.77;5.32;;;;;;;;;;4971441;28;20864;-61
2021/09/17 13:35:26;;;;;;;10.45;5.10;;;;;;;;;;4978799;28;20077;-61
2021/09/17 13:37:53;;;;;;;10.80;4.97;;;;;;;;;;4977375;28;20054;-62
2021/09/17 13:40:20;;;;;;;7.68;5.45;;;;;;;;;;4976868;28;20497;-61
2021/09/17 13:42:47;;;;;;;7.57;5.35;;;;;;;;;;4976957;28;20081;-62
2021/09/17 13:45:14;;;;;;;7.07;5.72;;;;;;;;;;4974483;28;20396;-62
2021/09/17 13:47:41;;;;;;;8.23;5.55;;;;;;;;;;4978590;28;20042;-62
2021/09/17 13:50:09;;;;;;;10.82;6.22;;;;;;;;;;4977589;28;20523;-62
2021/09/17 13:52:36;;;;;;;7.57;4.30;;;;;;;;;;4976833;28;20091;-62
2021/09/17 13:55:02;;;;;;;10.65;5.28;;;;;;;;;;4976865;28;20043;-61
2021/09/17 13:57:29;;;;;;;9.45;5.07;;;;;;;;;;4975099;28;20046;-62
2021/09/17 13:59:55;;;;;;;9.80;5.90;;;;;;;;;;4975098;28;20050;-63
2021/09/17 14:02:22;;;;;;;9.45;5.50;;;;;;;;;;4978778;28;20063;-62
2021/09/17 14:04:48;;;;;;;9.55;6.03;;;;;;;;;;4976049;28;20085;-61
2021/09/17 14:07:15;;;;;;;6.50;5.07;;;;;;;;;;4970865;28;20057;-62
2021/09/17 14:09:41;;;;;;;7.90;4.88;;;;;;;;;;4971903;28;20109;-62
2021/09/17 14:12:08;;;;;;;7.72;5.22;;;;;;;;;;4972257;28;20070;-62
2021/09/17 14:14:34;;;;;;;9.38;6.28;;;;;;;;;;4975806;28;20053;-62
2021/09/17 14:17:01;;;;;;;8.20;5.60;;;;;;;;;;4971726;28;20073;-60
2021/09/17 14:19:28;;;;;;;9.70;5.82;;;;;;;;;;4971492;28;20082;-61
2021/09/17 14:21:56;;;;;;;9.63;6.05;;;;;;;;;;4971830;28;20060;-61
2021/09/17 14:24:23;;;;;;;10.27;5.15;;;;;;;;;;4969017;28;20055;-61
2021/09/17 14:26:51;;;;;;;11.80;5.82;;;;;;;;;;4973518;28;20519;-62
2021/09/17 14:29:17;;;;;;;9.60;5.57;;;;;;;;;;4973870;28;20055;-62
2021/09/17 14:31:43;;;;;;;9.20;6.45;;;;;;;;;;4971228;28;20053;-61
2021/09/17 14:34:10;;;;;;;9.75;5.93;;;;;;;;;;4971449;28;20126;-61